createdAt,value
2022-12-29T00:00:30.389Z,13.52
2022-12-29T00:03:12.747Z,13.57
2022-12-29T00:06:06.359Z,13.46
2022-12-29T00:08:48.619Z,13.38
2022-12-29T00:11:37.306Z,13.51
2022-12-29T00:14:38.828Z,13.51
2022-12-29T00:17:27.170Z,13.64
2022-12-29T00:20:27.767Z,13.52
2022-12-29T00:23:36.222Z,13.51
2022-12-29T00:26:46.048Z,13.47
2022-12-29T00:29:53.204Z,13.17
2022-12-29T00:33:01.315Z,13.19
2022-12-29T00:35:56.047Z,12.80
2022-12-29T00:39:06.303Z,13.06
2022-12-29T00:42:14.216Z,13.56
2022-12-29T00:44:56.571Z,13.68
2022-12-29T00:47:45.139Z,13.50
2022-12-29T00:50:27.564Z,13.35
2022-12-29T00:53:16.276Z,13.79
2022-12-29T00:56:06.242Z,13.88
2022-12-29T00:58:56.142Z,13.52
2022-12-29T01:01:38.804Z,13.25
2022-12-29T01:04:32.215Z,13.05
2022-12-29T01:07:23.220Z,12.83
2022-12-29T01:10:16.740Z,13.06
2022-12-29T01:13:08.179Z,13.19
2022-12-29T01:16:01.578Z,13.31
2022-12-29T01:18:44.223Z,13.64
2022-12-29T01:21:26.795Z,13.53
2022-12-29T01:24:15.186Z,13.35
2022-12-29T01:27:03.537Z,13.49
2022-12-29T01:29:46.278Z,13.60
2022-12-29T01:32:34.521Z,13.44
2022-12-29T01:35:17.297Z,13.45
2022-12-29T01:38:07.536Z,13.70
2022-12-29T01:40:55.413Z,13.62
2022-12-29T01:43:45.180Z,13.54
2022-12-29T01:46:51.297Z,13.77
2022-12-29T01:49:39.546Z,13.78
2022-12-29T01:52:22.256Z,13.93
2022-12-29T01:55:13.287Z,13.78
2022-12-29T01:58:05.566Z,13.79
2022-12-29T02:00:48.396Z,13.66
2022-12-29T02:03:34.117Z,13.51
2022-12-29T02:06:39.278Z,13.43
2022-12-29T02:09:21.584Z,13.31
2022-12-29T02:12:10.216Z,13.40
2022-12-29T02:15:04.554Z,13.49
2022-12-29T02:18:07.191Z,13.41
2022-12-29T02:21:26.354Z,13.50
2022-12-29T02:24:43.259Z,13.32
2022-12-29T02:27:59.610Z,13.26
2022-12-29T02:31:14.580Z,13.17
2022-12-29T02:34:30.274Z,13.56
2022-12-29T02:37:16.551Z,13.42
2022-12-29T02:40:21.361Z,13.59
2022-12-29T02:43:06.639Z,13.80
2022-12-29T02:46:42.581Z,14.03
2022-12-29T02:49:45.531Z,14.07
2022-12-29T02:52:41.346Z,14.25
2022-12-29T02:55:23.483Z,14.14
2022-12-29T02:58:18.159Z,14.04
2022-12-29T03:01:35.464Z,13.86
2022-12-29T03:04:43.923Z,13.93
2022-12-29T03:08:16.313Z,14.08
2022-12-29T03:11:36.124Z,14.24
2022-12-29T03:14:59.248Z,14.41
2022-12-29T03:18:07.186Z,14.56
2022-12-29T03:21:03.624Z,14.52
2022-12-29T03:23:56.167Z,14.84
2022-12-29T03:26:45.309Z,14.73
2022-12-29T03:29:40.217Z,14.58
2022-12-29T03:32:25.513Z,14.54
2022-12-29T03:35:18.356Z,14.68
2022-12-29T03:38:13.590Z,14.46
2022-12-29T03:41:07.218Z,14.78
2022-12-29T03:43:49.579Z,14.94
2022-12-29T03:46:38.261Z,14.87
2022-12-29T03:49:20.566Z,15.04
2022-12-29T03:52:09.219Z,15.01
2022-12-29T03:54:53.595Z,15.04
2022-12-29T03:57:42.262Z,15.30
2022-12-29T04:00:30.604Z,15.32
2022-12-29T04:03:19.209Z,15.51
2022-12-29T04:06:01.562Z,15.50
2022-12-29T04:09:10.249Z,15.48
2022-12-29T04:11:54.727Z,15.83
2022-12-29T04:14:43.234Z,15.77
2022-12-29T04:17:33.303Z,15.61
2022-12-29T04:20:49.199Z,15.63
2022-12-29T04:23:40.596Z,15.67
2022-12-29T04:26:24.195Z,15.80
2022-12-29T04:29:20.576Z,15.99
2022-12-29T04:32:34.296Z,16.18
2022-12-29T04:35:24.122Z,16.53
2022-12-29T04:38:15.218Z,16.53
2022-12-29T04:41:06.250Z,16.36
2022-12-29T04:43:48.397Z,16.74
2022-12-29T04:46:40.359Z,17.01
2022-12-29T04:49:47.434Z,16.93
2022-12-29T04:52:51.154Z,16.91
2022-12-29T04:55:40.484Z,16.96
2022-12-29T04:58:29.198Z,17.22
2022-12-29T05:01:11.676Z,17.33
2022-12-29T05:04:01.138Z,17.28
2022-12-29T05:06:51.245Z,17.29
2022-12-29T05:09:40.504Z,17.49
2022-12-29T05:12:23.322Z,17.79
2022-12-29T05:15:17.626Z,17.62
2022-12-29T05:18:01.220Z,18.04
2022-12-29T05:20:50.796Z,18.32
2022-12-29T05:23:33.106Z,18.49
2022-12-29T05:26:30.197Z,18.44
2022-12-29T05:29:35.464Z,18.49
2022-12-29T05:32:24.304Z,18.23
2022-12-29T05:35:13.219Z,18.27
2022-12-29T05:37:56.498Z,18.39
2022-12-29T05:40:46.211Z,18.53
2022-12-29T05:43:55.193Z,18.53
2022-12-29T05:46:49.630Z,18.47
2022-12-29T05:50:02.575Z,18.38
2022-12-29T05:53:02.359Z,18.38
2022-12-29T05:55:53.112Z,18.51
2022-12-29T05:58:48.036Z,18.45
2022-12-29T06:01:38.445Z,18.45
2022-12-29T06:04:21.571Z,18.38
2022-12-29T06:07:11.279Z,18.29
2022-12-29T06:09:55.581Z,18.40
2022-12-29T06:12:48.247Z,18.37
2022-12-29T06:15:31.300Z,18.23
2022-12-29T06:18:23.172Z,18.18
2022-12-29T06:21:20.188Z,18.16
2022-12-29T06:24:02.587Z,18.11
2022-12-29T06:26:52.247Z,18.05
2022-12-29T06:29:42.758Z,18.15
2022-12-29T06:32:25.145Z,18.06
2022-12-29T06:35:20.236Z,18.18
2022-12-29T06:38:02.641Z,18.13
2022-12-29T06:40:53.232Z,18.25
2022-12-29T06:44:01.530Z,18.24
2022-12-29T06:47:09.311Z,18.19
2022-12-29T06:49:51.996Z,18.04
2022-12-29T06:52:41.221Z,18.23
2022-12-29T06:55:31.076Z,18.33
2022-12-29T06:58:19.455Z,18.24
2022-12-29T07:01:02.308Z,18.18
2022-12-29T07:03:45.291Z,18.02
2022-12-29T07:06:34.302Z,17.92
2022-12-29T07:09:16.462Z,17.86
2022-12-29T07:12:06.107Z,17.64
2022-12-29T07:14:55.325Z,17.60
2022-12-29T07:17:37.524Z,17.52
2022-12-29T07:20:27.188Z,17.46
2022-12-29T07:23:10.113Z,17.44
2022-12-29T07:25:59.325Z,17.47
2022-12-29T07:28:43.976Z,17.45
2022-12-29T07:31:33.251Z,17.41
2022-12-29T07:34:24.193Z,17.45
2022-12-29T07:37:13.235Z,17.47
2022-12-29T07:39:55.506Z,17.21
2022-12-29T07:42:44.186Z,17.27
2022-12-29T07:45:35.625Z,16.93
2022-12-29T07:48:24.206Z,17.27
2022-12-29T07:51:06.501Z,17.26
2022-12-29T07:53:56.222Z,16.93
2022-12-29T07:56:38.545Z,16.99
2022-12-29T07:59:27.223Z,16.24
2022-12-29T08:02:09.613Z,16.20
2022-12-29T08:04:58.266Z,16.54
2022-12-29T08:07:40.549Z,16.67
2022-12-29T08:10:29.121Z,16.69
2022-12-29T08:13:11.580Z,16.81
2022-12-29T08:16:00.127Z,16.63
2022-12-29T08:18:42.544Z,16.58
2022-12-29T08:21:31.129Z,16.84
2022-12-29T08:24:15.567Z,16.95
2022-12-29T08:27:10.852Z,16.46
2022-12-29T08:29:58.497Z,16.83
2022-12-29T08:32:47.196Z,16.77
2022-12-29T08:35:36.211Z,17.19
2022-12-29T08:38:24.506Z,17.23
2022-12-29T08:41:09.216Z,17.28
2022-12-29T08:43:52.575Z,17.31
2022-12-29T08:46:41.591Z,17.36
2022-12-29T08:49:29.460Z,17.33
2022-12-29T08:52:12.160Z,17.49
2022-12-29T08:55:00.518Z,17.51
2022-12-29T08:57:57.099Z,17.28
2022-12-29T09:00:39.393Z,17.50
2022-12-29T09:06:40.497Z,17.43
2022-12-29T09:09:24.253Z,17.39
2022-12-29T09:12:12.454Z,17.43
2022-12-29T09:14:57.250Z,17.22
2022-12-29T09:17:45.970Z,16.97
2022-12-29T09:20:29.216Z,16.76
2022-12-29T09:23:17.532Z,16.92
2022-12-29T09:26:00.190Z,16.91
2022-12-29T09:28:42.445Z,16.77
2022-12-29T09:31:31.310Z,16.90
2022-12-29T09:34:19.548Z,16.83
2022-12-29T09:37:01.323Z,16.94
2022-12-29T09:39:54.318Z,17.03
2022-12-29T09:42:50.316Z,17.06
2022-12-29T09:45:53.805Z,17.05
2022-12-29T09:48:44.547Z,17.03
2022-12-29T09:51:35.595Z,16.94
2022-12-29T09:54:38.179Z,16.71
2022-12-29T09:57:28.693Z,16.56
2022-12-29T10:00:23.152Z,16.63
2022-12-29T10:03:15.848Z,16.62
2022-12-29T10:06:11.200Z,16.23
2022-12-29T10:09:30.116Z,16.33
2022-12-29T10:12:31.153Z,16.31
2022-12-29T10:15:53.254Z,16.01
2022-12-29T10:18:56.474Z,16.17
2022-12-29T10:22:02.082Z,15.98
2022-12-29T10:24:52.671Z,16.17
2022-12-29T10:27:35.105Z,16.15
2022-12-29T10:30:25.534Z,16.34
2022-12-29T10:33:15.156Z,16.34
2022-12-29T10:35:57.851Z,16.40
2022-12-29T10:38:56.115Z,16.34
2022-12-29T10:41:54.513Z,16.39
2022-12-29T10:44:40.372Z,16.28
2022-12-29T10:47:27.482Z,16.20
2022-12-29T10:50:17.217Z,15.94
2022-12-29T10:53:11.471Z,16.00
2022-12-29T10:55:55.101Z,16.27
2022-12-29T10:58:51.275Z,16.09
2022-12-29T11:01:54.588Z,16.15
2022-12-29T11:04:43.596Z,16.05
2022-12-29T11:07:32.543Z,15.84
2022-12-29T11:10:29.208Z,15.82
2022-12-29T11:13:39.324Z,15.59
2022-12-29T11:16:22.256Z,15.59
2022-12-29T11:19:11.504Z,15.78
2022-12-29T11:21:54.309Z,15.92
2022-12-29T11:24:53.518Z,15.97
2022-12-29T11:27:36.171Z,15.98
2022-12-29T11:30:43.261Z,15.83
2022-12-29T11:33:26.527Z,15.95
2022-12-29T11:36:18.239Z,15.99
2022-12-29T11:39:05.572Z,16.02
2022-12-29T11:42:01.201Z,15.98
2022-12-29T11:44:50.506Z,15.94
2022-12-29T11:47:41.243Z,15.85
2022-12-29T11:50:39.419Z,15.62
2022-12-29T11:53:41.152Z,15.91
2022-12-29T11:56:35.348Z,15.91
2022-12-29T11:59:52.039Z,15.94
2022-12-29T12:02:57.287Z,15.81
2022-12-29T12:05:59.527Z,16.04
2022-12-29T12:08:57.230Z,15.99
2022-12-29T12:11:45.302Z,15.82
2022-12-29T12:15:03.174Z,15.93
2022-12-29T12:18:17.771Z,15.98
2022-12-29T12:21:10.108Z,16.06
2022-12-29T12:24:17.512Z,15.98
2022-12-29T12:27:23.071Z,15.85
2022-12-29T12:30:18.521Z,16.00
2022-12-29T12:33:13.218Z,16.04
2022-12-29T12:36:26.155Z,15.95
2022-12-29T12:39:31.504Z,16.02
2022-12-29T12:42:35.159Z,15.99
2022-12-29T12:45:42.459Z,15.89
2022-12-29T12:48:57.225Z,16.01
2022-12-29T12:52:16.448Z,15.92
2022-12-29T12:55:34.179Z,16.03
2022-12-29T12:58:44.028Z,15.96
2022-12-29T13:01:33.376Z,16.00
2022-12-29T13:04:41.542Z,15.87
2022-12-29T13:07:44.202Z,16.08
2022-12-29T13:10:49.877Z,16.10
2022-12-29T13:14:07.142Z,16.11
2022-12-29T13:17:22.458Z,16.01
2022-12-29T13:20:29.082Z,15.98
2022-12-29T13:23:14.451Z,16.14
2022-12-29T13:26:21.034Z,16.20
2022-12-29T13:29:49.232Z,16.12
2022-12-29T13:32:59.009Z,16.24
2022-12-29T13:36:12.097Z,16.13
2022-12-29T13:39:02.867Z,16.08
2022-12-29T13:41:58.193Z,16.15
2022-12-29T13:44:46.809Z,16.22
2022-12-29T13:47:54.156Z,16.15
2022-12-29T13:50:49.098Z,16.15
2022-12-29T13:54:04.138Z,16.23
2022-12-29T13:57:25.779Z,16.16
2022-12-29T14:00:24.455Z,15.90
2022-12-29T14:03:43.324Z,16.17
2022-12-29T14:06:33.767Z,16.05
2022-12-29T14:09:53.012Z,16.08
2022-12-29T14:12:41.540Z,16.13
2022-12-29T14:15:31.309Z,16.01
2022-12-29T14:18:15.485Z,15.66
2022-12-29T14:21:36.245Z,15.77
2022-12-29T14:24:36.963Z,15.78
2022-12-29T14:27:26.016Z,15.51
2022-12-29T14:30:56.067Z,15.00
2022-12-29T14:33:48.120Z,14.80
2022-12-29T14:36:45.174Z,15.10
2022-12-29T14:39:57.094Z,14.72
2022-12-29T14:42:47.883Z,14.42
2022-12-29T14:45:38.097Z,14.20
2022-12-29T14:48:52.064Z,14.11
2022-12-29T14:51:52.135Z,14.07
2022-12-29T14:54:41.194Z,14.30
2022-12-29T14:57:48.429Z,14.39
2022-12-29T15:00:46.570Z,14.24
2022-12-29T15:03:54.528Z,14.05
2022-12-29T15:06:48.205Z,13.96
2022-12-29T15:09:51.020Z,13.83
2022-12-29T15:13:00.142Z,14.05
2022-12-29T15:15:47.485Z,13.85
2022-12-29T15:18:43.144Z,13.90
2022-12-29T15:21:29.489Z,14.07
2022-12-29T15:24:20.134Z,14.22
2022-12-29T15:27:03.446Z,14.38
2022-12-29T15:29:55.108Z,14.18
2022-12-29T15:32:54.089Z,14.19
2022-12-29T15:35:45.195Z,14.23
2022-12-29T15:38:40.477Z,14.25
2022-12-29T15:42:04.049Z,14.02
2022-12-29T15:44:57.974Z,14.07
2022-12-29T15:48:03.263Z,14.08
2022-12-29T15:50:45.935Z,14.36
2022-12-29T15:53:41.026Z,13.96
2022-12-29T15:56:29.982Z,14.01
2022-12-29T15:59:47.120Z,13.81
2022-12-29T16:02:30.174Z,14.21
2022-12-29T16:05:18.594Z,13.81
2022-12-29T16:08:13.009Z,13.34
2022-12-29T16:10:58.271Z,13.24
2022-12-29T16:13:56.152Z,13.69
2022-12-29T16:16:43.815Z,13.90
2022-12-29T16:19:53.161Z,13.65
2022-12-29T16:22:58.120Z,13.71
2022-12-29T16:25:51.064Z,13.27
2022-12-29T16:28:44.377Z,13.60
2022-12-29T16:31:41.012Z,13.11
2022-12-29T16:34:47.525Z,13.46
2022-12-29T16:37:45.115Z,13.42
2022-12-29T16:40:38.995Z,13.11
2022-12-29T16:43:40.044Z,13.39
2022-12-29T16:46:39.308Z,13.89
2022-12-29T16:49:33.146Z,13.87
2022-12-29T16:52:43.155Z,14.11
2022-12-29T16:55:27.479Z,14.13
2022-12-29T16:58:28.153Z,14.34
2022-12-29T17:01:20.869Z,13.66
2022-12-29T17:04:09.416Z,13.52
2022-12-29T17:06:57.542Z,13.10
2022-12-29T17:09:39.148Z,13.57
2022-12-29T17:12:28.375Z,13.74
2022-12-29T17:15:21.118Z,13.31
2022-12-29T17:18:13.646Z,13.35
2022-12-29T17:20:56.544Z,13.27
2022-12-29T17:23:45.186Z,13.71
2022-12-29T17:26:27.512Z,13.85
2022-12-29T17:29:17.058Z,13.85
2022-12-29T17:31:59.498Z,13.57
2022-12-29T17:34:50.118Z,13.87
2022-12-29T17:37:39.329Z,14.02
2022-12-29T17:40:37.172Z,14.18
2022-12-29T17:43:23.465Z,14.25
2022-12-29T17:46:16.129Z,13.71
2022-12-29T17:48:58.671Z,14.24
2022-12-29T17:51:48.085Z,13.94
2022-12-29T17:54:40.006Z,14.19
2022-12-29T17:57:29.479Z,14.27
2022-12-29T18:00:28.067Z,14.43
2022-12-29T18:03:10.656Z,14.49
2022-12-29T18:06:00.115Z,14.47
2022-12-29T18:08:54.014Z,14.25
2022-12-29T18:11:42.510Z,14.37
2022-12-29T18:14:25.017Z,14.18
2022-12-29T18:17:20.440Z,13.94
2022-12-29T18:20:03.132Z,14.09
2022-12-29T18:22:45.388Z,14.06
2022-12-29T18:25:37.056Z,13.99
2022-12-29T18:28:26.108Z,13.95
2022-12-29T18:31:10.204Z,13.97
2022-12-29T18:34:00.037Z,13.86
2022-12-29T18:36:42.540Z,14.01
2022-12-29T18:39:32.123Z,13.99
2022-12-29T18:42:15.514Z,13.76
2022-12-29T18:45:04.146Z,13.90
2022-12-29T18:47:46.513Z,13.81
2022-12-29T18:50:35.169Z,13.94
2022-12-29T18:53:28.314Z,13.74
2022-12-29T18:56:17.169Z,13.60
2022-12-29T18:59:11.948Z,13.61
2022-12-29T19:02:01.236Z,13.58
2022-12-29T19:04:43.425Z,13.79
2022-12-29T19:07:32.039Z,13.56
2022-12-29T19:10:14.449Z,13.45
2022-12-29T19:13:03.587Z,13.66
2022-12-29T19:15:47.553Z,13.62
2022-12-29T19:18:46.389Z,13.65
2022-12-29T19:21:31.562Z,13.65
2022-12-29T19:24:20.139Z,13.58
2022-12-29T19:27:09.047Z,13.61
2022-12-29T19:29:57.396Z,13.48
2022-12-29T19:32:40.063Z,13.53
2022-12-29T19:35:24.299Z,13.62
2022-12-29T19:38:13.034Z,13.43
2022-12-29T19:41:01.421Z,13.30
2022-12-29T19:43:44.261Z,13.43
2022-12-29T19:46:26.775Z,13.18
2022-12-29T19:49:16.038Z,12.92
2022-12-29T19:52:04.385Z,12.98
2022-12-29T19:54:46.141Z,13.10
2022-12-29T19:57:35.142Z,13.29
2022-12-29T20:00:18.509Z,13.10
2022-12-29T20:03:07.277Z,13.02
2022-12-29T20:05:55.989Z,13.08
2022-12-29T20:08:46.078Z,13.00
2022-12-29T20:11:28.335Z,12.91
2022-12-29T20:14:17.120Z,13.00
2022-12-29T20:17:10.814Z,13.00
2022-12-29T20:20:00.117Z,12.96
2022-12-29T20:22:49.139Z,12.83
2022-12-29T20:25:46.633Z,12.68
2022-12-29T20:28:30.077Z,12.70
2022-12-29T20:31:29.409Z,12.83
2022-12-29T20:34:12.968Z,12.64
2022-12-29T20:37:02.070Z,12.82
2022-12-29T20:39:45.403Z,12.59
2022-12-29T20:42:33.992Z,12.72
2022-12-29T20:45:16.397Z,12.69
2022-12-29T20:48:05.077Z,12.63
2022-12-29T20:50:47.355Z,12.70
2022-12-29T20:53:38.143Z,12.65
2022-12-29T20:56:40.125Z,12.58
2022-12-29T20:59:35.123Z,12.72
2022-12-29T21:02:26.358Z,12.84
2022-12-29T21:05:23.648Z,12.86
2022-12-29T21:08:13.388Z,12.77
2022-12-29T21:10:57.083Z,12.76
2022-12-29T21:13:39.268Z,12.71
2022-12-29T21:16:29.427Z,12.70
2022-12-29T21:19:17.313Z,12.81
2022-12-29T21:22:00.116Z,12.73
2022-12-29T21:24:48.380Z,12.73
2022-12-29T21:27:31.016Z,12.52
2022-12-29T21:30:14.678Z,12.42
2022-12-29T21:33:04.179Z,12.34
2022-12-29T21:35:46.676Z,12.38
2022-12-29T21:38:37.128Z,12.34
2022-12-29T21:41:27.060Z,12.54
2022-12-29T21:44:27.584Z,12.58
2022-12-29T21:47:15.939Z,12.63
2022-12-29T21:49:58.295Z,12.60
2022-12-29T21:52:47.127Z,12.73
2022-12-29T21:55:29.448Z,12.64
2022-12-29T21:58:44.070Z,12.61
2022-12-29T22:01:59.068Z,12.52
2022-12-29T22:05:06.073Z,12.47
2022-12-29T22:08:06.802Z,12.27
2022-12-29T22:11:15.099Z,12.31
2022-12-29T22:13:59.143Z,12.39
2022-12-29T22:16:48.039Z,12.47
2022-12-29T22:19:31.345Z,12.40
2022-12-29T22:22:20.068Z,12.26
2022-12-29T22:25:03.740Z,12.40
2022-12-29T22:27:58.536Z,12.29
2022-12-29T22:30:41.435Z,12.39
2022-12-29T22:33:30.057Z,12.44
2022-12-29T22:36:19.055Z,12.35
2022-12-29T22:39:01.254Z,12.21
2022-12-29T22:41:50.052Z,12.22
2022-12-29T22:44:32.287Z,12.28
2022-12-29T22:47:21.069Z,12.29
2022-12-29T22:50:03.348Z,12.34
2022-12-29T22:52:52.055Z,12.22
2022-12-29T22:55:40.347Z,12.17
2022-12-29T22:58:21.955Z,12.12
2022-12-29T23:01:17.013Z,12.07
2022-12-29T23:04:46.958Z,12.17
2022-12-29T23:07:14.993Z,12.04
2022-12-29T23:10:03.394Z,12.07
2022-12-29T23:12:46.075Z,12.07
2022-12-29T23:15:28.177Z,12.08
2022-12-29T23:18:17.428Z,12.07
2022-12-29T23:20:59.351Z,12.00
2022-12-29T23:24:12.044Z,11.85
2022-12-29T23:26:54.303Z,11.92
2022-12-29T23:29:43.061Z,11.86
2022-12-29T23:32:31.361Z,11.94
2022-12-29T23:35:14.078Z,11.94
2022-12-29T23:37:56.333Z,12.11
2022-12-29T23:40:45.043Z,12.10
2022-12-29T23:43:34.343Z,12.12
2022-12-29T23:46:22.128Z,11.98
2022-12-29T23:49:04.181Z,11.89
2022-12-29T23:51:53.203Z,11.92
2022-12-29T23:54:41.391Z,11.90
2022-12-29T23:57:23.917Z,11.91
